Ashford, West Virginia
Current Conditions -  °F | °C
As of 2:54 AM on Monday 24 Nov 2014 (Local Time) from KCRW Reporting Station
Overcast Overcast  
Wind Chill: 66°   Ceiling: 4500
Heat Index: 66°   Visibility: 10mi
Dew Point: 50°   Wind: 16mph
Humidity: 56%   Direction: 210°SSW
Pressure: 29.48"   Gusts: 28mph
Location:  38.18°N, 81.71°W
Report Text: KCRW 240754Z 21014G24KT 10SM BKN045 OVC060 19/10 A2948 RMK AO2 PK WND 20031/0724 SLP977 T01890100
Loading
Personal Weather Stations






























Interactive Weather Map New forecast layout! Learn more

10-Day Weather Forecast

Advertisements
Track Severe Weather on mobile